Time;durP1;ratioP1;P1;durP2;ratioP2;P2;SDS_P1;SDS_P2;PMS_P1;PMS_P2;Temp;Humidity;BMP_temperature;BMP_pressure;BME280_temperature;BME280_humidity;BME280_pressure;Samples;Min_cycle;Max_cycle;Signal;HPM_P1;HPM_P2
2022/04/19 00:01:26;;;;;;;2.90;1.50;;;;;;;8.80;50.26;99525.16;12219243;19;20443;-83
2022/04/19 00:05:29;;;;;;;3.58;1.30;;;;;;;8.77;50.51;99534.72;12189189;19;20003;-83
2022/04/19 00:09:31;;;;;;;2.97;1.38;;;;;;;8.77;50.36;99529.22;12211975;19;20023;-84
2022/04/19 00:13:32;;;;;;;2.30;1.52;;;;;;;8.78;50.66;99524.59;12217883;19;20110;-83
2022/04/19 00:17:34;;;;;;;2.75;1.70;;;;;;;8.79;50.40;99529.81;12210478;19;20006;-86
2022/04/19 00:21:36;;;;;;;3.63;1.65;;;;;;;8.80;50.39;99511.41;12207870;19;20009;-83
2022/04/19 00:25:38;;;;;;;4.10;1.60;;;;;;;8.83;50.37;99513.69;12210114;19;20029;-82
2022/04/19 00:29:41;;;;;;;1.58;1.38;;;;;;;8.81;50.13;99511.19;12190514;19;20014;-84
2022/04/19 00:33:44;;;;;;;3.67;1.45;;;;;;;8.80;49.97;99505.94;12216482;19;20102;-84
2022/04/19 00:37:46;;;;;;;2.17;1.50;;;;;;;8.83;49.80;99494.44;12184983;19;20027;-83
2022/04/19 00:41:48;;;;;;;2.22;1.40;;;;;;;8.87;49.90;99495.66;12191154;19;20014;-83
2022/04/19 00:45:50;;;;;;;3.47;1.77;;;;;;;8.87;49.45;99495.66;12211864;19;20026;-83
2022/04/19 00:49:55;;;;;;;3.25;1.80;;;;;;;8.87;49.81;99495.66;12214273;19;20014;-84
2022/04/19 00:53:57;;;;;;;2.55;1.60;;;;;;;8.86;49.95;99482.97;12196508;19;20018;-83
2022/04/19 00:58:00;;;;;;;3.17;1.75;;;;;;;8.83;49.81;99477.97;12206103;19;20010;-83
2022/04/19 01:02:03;;;;;;;5.65;1.70;;;;;;;8.83;49.68;99476.06;12210760;19;20018;-84
2022/04/19 01:06:06;;;;;;;4.47;1.80;;;;;;;8.80;50.28;99476.53;12191903;19;20014;-83
2022/04/19 01:10:10;;;;;;;3.35;1.80;;;;;;;8.76;50.16;99472.63;12207359;19;20015;-84
2022/04/19 01:14:12;;;;;;;4.38;1.90;;;;;;;8.74;50.22;99469.28;12209065;19;20031;-83
2022/04/19 01:18:20;;;;;;;2.38;1.35;;;;;;;8.75;50.17;99470.16;12177432;19;20029;-84
2022/04/19 01:22:24;;;;;;;3.92;1.63;;;;;;;8.70;50.45;99465.38;12211903;19;20006;-84
2022/04/19 01:26:26;;;;;;;2.20;1.60;;;;;;;8.65;50.54;99454.28;12179769;19;20018;-84
2022/04/19 01:30:27;;;;;;;1.98;1.50;;;;;;;8.64;50.57;99453.44;12209085;19;20027;-84
2022/04/19 01:34:30;;;;;;;3.50;1.67;;;;;;;8.60;50.75;99455.03;12203866;19;20465;-84
2022/04/19 01:38:35;;;;;;;2.58;1.50;;;;;;;8.58;50.86;99459.94;12184204;19;20030;-84
2022/04/19 01:42:36;;;;;;;2.55;1.52;;;;;;;8.55;50.62;99462.34;12208622;19;20388;-84
2022/04/19 01:46:41;;;;;;;2.50;1.67;;;;;;;8.44;51.11;99455.81;12205313;19;20066;-83
2022/04/19 01:50:45;;;;;;;3.70;1.75;;;;;;;8.33;52.16;99457.50;12190181;19;20043;-84
2022/04/19 01:54:49;;;;;;;2.88;1.80;;;;;;;8.18;52.66;99451.69;12210671;19;20011;-84
2022/04/19 01:59:00;;;;;;;5.25;1.50;;;;;;;8.03;52.84;99457.69;12212306;19;20010;-83
2022/04/19 02:03:20;;;;;;;8.05;1.50;;;;;;;7.92;52.93;99445.66;12184711;19;20890;-83
2022/04/19 02:07:24;;;;;;;2.83;1.70;;;;;;;7.81;53.43;99445.69;12212679;19;20011;-83
2022/04/19 02:11:26;;;;;;;4.25;1.65;;;;;;;7.70;53.69;99448.22;12187644;19;20045;-83
2022/04/19 02:16:00;;;;;;;2.85;1.55;;;;;;;7.61;53.50;99449.63;12198161;19;20016;-84
2022/04/19 02:20:06;;;;;;;2.90;1.45;;;;;;;7.42;54.59;99456.31;12205840;19;20011;-83
2022/04/19 02:24:08;;;;;;;3.20;1.42;;;;;;;7.30;55.14;99445.34;12181866;19;20037;-83
2022/04/19 02:28:11;;;;;;;3.83;1.55;;;;;;;7.21;55.92;99450.34;12204094;19;20128;-83
2022/04/19 02:32:23;;;;;;;5.40;1.60;;;;;;;7.14;56.49;99452.38;12205485;19;20467;-83
2022/04/19 02:36:26;;;;;;;3.03;2.10;;;;;;;7.00;56.85;99445.44;12179599;19;20036;-83
2022/04/19 02:40:28;;;;;;;3.15;1.55;;;;;;;6.89;57.62;99433.38;12209166;19;20014;-83
2022/04/19 02:44:33;;;;;;;2.88;1.63;;;;;;;6.84;58.01;99435.97;12189134;19;20646;-83
2022/04/19 02:48:40;;;;;;;3.78;2.47;;;;;;;6.77;58.67;99427.88;12209337;19;20030;-83
2022/04/19 02:52:42;;;;;;;2.85;2.00;;;;;;;6.70;58.69;99435.34;12208180;19;20015;-84
2022/04/19 02:56:44;;;;;;;2.70;1.52;;;;;;;6.67;59.00;99435.81;12182280;19;20018;-83
2022/04/19 03:00:46;;;;;;;2.85;1.60;;;;;;;6.62;59.15;99432.94;12203348;19;21873;-83
2022/04/19 03:04:51;;;;;;;5.82;2.13;;;;;;;6.54;59.08;99428.66;12200671;19;20026;-82
2022/04/19 03:08:53;;;;;;;2.17;1.70;;;;;;;6.48;59.65;99428.72;12175226;19;20070;-82
2022/04/19 03:12:55;;;;;;;3.15;1.50;;;;;;;6.38;60.33;99426.56;12200705;19;20015;-83
2022/04/19 03:17:04;;;;;;;3.25;1.80;;;;;;;6.31;60.80;99423.91;12192038;19;20078;-83
2022/04/19 03:21:05;;;;;;;;;;;;;;;6.24;60.95;99427.78;12215680;19;20011;-83
2022/04/19 03:29:28;;;;;;;3.08;1.83;;;;;;;6.11;61.40;99426.06;12213759;19;20341;-84
2022/04/19 03:33:31;;;;;;;2.90;1.70;;;;;;;6.05;61.22;99422.34;12210130;19;20018;-84
2022/04/19 03:37:33;;;;;;;3.00;1.80;;;;;;;5.97;61.57;99435.50;12208728;19;20475;-83
2022/04/19 03:41:35;;;;;;;3.83;1.80;;;;;;;5.93;61.51;99426.94;12186850;19;20010;-83
2022/04/19 03:45:37;;;;;;;4.07;1.75;;;;;;;5.87;61.89;99423.19;12196073;19;20039;-83
2022/04/19 03:49:41;;;;;;;3.80;2.13;;;;;;;5.83;62.60;99432.91;12201536;19;20006;-83
2022/04/19 03:53:43;;;;;;;2.90;1.75;;;;;;;5.77;63.20;99433.81;12183425;19;20026;-83
2022/04/19 03:57:48;;;;;;;4.63;2.20;;;;;;;5.72;63.11;99420.81;12205025;19;20014;-83
2022/04/19 04:01:49;;;;;;;7.22;2.38;;;;;;;5.69;63.51;99421.28;12192021;19;20017;-83
2022/04/19 04:05:51;;;;;;;5.95;2.88;;;;;;;5.67;63.80;99428.03;12175390;19;20531;-83
2022/04/19 04:09:53;;;;;;;4.15;1.92;;;;;;;5.63;63.99;99429.56;12205000;19;20037;-83
2022/04/19 04:13:55;;;;;;;5.20;2.70;;;;;;;5.60;64.29;99430.84;12198970;19;20003;-83
2022/04/19 04:17:56;;;;;;;4.85;2.45;;;;;;;5.59;64.57;99431.06;12168424;19;20018;-83
2022/04/19 04:21:58;;;;;;;5.40;2.42;;;;;;;5.54;64.75;99434.50;12209521;19;20015;-83
2022/04/19 04:26:00;;;;;;;4.35;2.13;;;;;;;5.51;65.15;99437.69;12194113;19;20676;-83
2022/04/19 04:30:06;;;;;;;4.78;2.67;;;;;;;5.45;64.84;99431.22;12191108;19;20011;-83
2022/04/19 04:34:14;;;;;;;4.32;2.35;;;;;;;5.47;65.12;99440.03;12216116;19;20041;-83
2022/04/19 04:38:18;;;;;;;3.72;2.28;;;;;;;5.47;65.23;99442.75;12216336;19;19998;-82
2022/04/19 04:42:20;;;;;;;3.73;2.57;;;;;;;5.52;65.29;99431.13;12187616;19;20010;-83
2022/04/19 04:50:42;;;;;;;6.20;2.40;;;;;;;5.53;65.53;99437.44;12182008;19;20029;-83
2022/04/19 04:54:45;;;;;;;3.05;2.05;;;;;;;5.54;66.25;99439.97;12209752;19;20029;-83
2022/04/19 04:58:54;;;;;;;3.53;1.90;;;;;;;5.54;66.32;99445.44;12201895;19;20011;-83
2022/04/19 05:02:57;;;;;;;5.13;2.28;;;;;;;5.56;66.18;99437.84;12181814;19;20011;-83
2022/04/19 05:07:01;;;;;;;4.68;2.10;;;;;;;5.62;66.02;99430.59;12208986;19;20002;-82
2022/04/19 05:11:09;;;;;;;4.55;2.15;;;;;;;5.61;66.59;99443.44;12215400;19;20046;-82
2022/04/19 05:15:10;;;;;;;3.58;2.15;;;;;;;5.63;66.31;99448.69;12186878;19;20487;-82
2022/04/19 05:19:14;;;;;;;4.22;2.22;;;;;;;5.66;66.20;99453.72;12205229;19;20007;-81
2022/04/19 05:23:21;;;;;;;6.22;2.10;;;;;;;5.70;66.42;99453.00;12217262;19;20845;-82
2022/04/19 05:27:25;;;;;;;3.30;2.10;;;;;;;5.77;66.47;99452.97;12182194;19;20077;-84
2022/04/19 05:31:28;;;;;;;3.60;2.13;;;;;;;5.85;66.85;99458.09;12205062;19;20472;-83
2022/04/19 05:35:30;;;;;;;5.32;2.30;;;;;;;5.92;67.86;99460.78;12185140;19;20014;-82
2022/04/19 05:39:31;;;;;;;3.00;2.05;;;;;;;6.00;67.21;99454.19;12197267;19;20277;-81
2022/04/19 05:43:33;;;;;;;2.45;1.70;;;;;;;6.05;67.36;99462.56;12181714;19;20660;-82
2022/04/19 05:47:35;;;;;;;4.00;2.08;;;;;;;6.10;67.47;99465.44;12185198;19;20010;-83
2022/04/19 05:51:37;;;;;;;4.63;2.67;;;;;;;6.16;67.29;99475.47;12204677;19;20009;-82
2022/04/19 05:55:38;;;;;;;3.78;2.20;;;;;;;6.23;67.13;99473.47;12194771;19;20011;-82
2022/04/19 05:59:41;;;;;;;5.60;2.80;;;;;;;6.32;66.94;99472.09;12181129;19;20494;-82
2022/04/19 06:08:18;;;;;;;4.82;2.80;;;;;;;6.59;67.08;99467.09;12211022;19;20082;-83
2022/04/19 06:12:36;;;;;;;7.18;2.35;;;;;;;6.73;66.79;99467.75;12187326;19;20006;-82
2022/04/19 06:16:38;;;;;;;7.55;2.72;;;;;;;6.88;66.98;99469.22;12206949;19;20484;-82
2022/04/19 06:20:40;;;;;;;8.63;2.80;;;;;;;7.04;66.48;99458.41;12187661;19;20011;-81
2022/04/19 06:24:43;;;;;;;9.15;3.15;;;;;;;7.20;66.52;99464.28;12213690;19;20019;-81
2022/04/19 06:28:45;;;;;;;7.88;3.05;;;;;;;7.38;66.65;99466.09;12202891;19;20041;-82
2022/04/19 06:33:16;;;;;;;6.07;2.45;;;;;;;7.59;66.11;99462.75;12184201;19;20034;-82
2022/04/19 06:37:17;;;;;;;4.90;2.67;;;;;;;7.88;65.41;99455.47;12200705;19;20033;-83
2022/04/19 06:41:26;;;;;;;5.32;2.00;;;;;;;8.14;65.20;99454.06;12179374;19;20118;-82
2022/04/19 06:45:28;;;;;;;6.88;2.95;;;;;;;8.48;64.14;99464.38;12207020;19;20073;-82
2022/04/19 06:49:38;;;;;;;5.28;2.60;;;;;;;8.83;62.73;99465.09;12209819;19;20368;-83
2022/04/19 06:53:40;;;;;;;4.78;2.58;;;;;;;9.23;61.58;99463.28;12177589;19;20011;-84
2022/04/19 06:57:49;;;;;;;9.63;2.42;;;;;;;9.61;60.18;99470.78;12203076;19;20006;-82
2022/04/19 07:01:51;;;;;;;5.43;2.60;;;;;;;9.87;59.59;99471.13;12198544;19;20074;-82
2022/04/19 07:06:13;;;;;;;7.68;3.13;;;;;;;10.05;60.14;99468.06;12175956;19;20007;-83
2022/04/19 07:10:16;;;;;;;9.80;2.58;;;;;;;10.09;59.63;99471.19;12205560;19;20003;-85
2022/04/19 07:14:27;;;;;;;7.72;2.83;;;;;;;10.08;59.04;99472.25;12184503;19;20010;-85
2022/04/19 07:18:32;;;;;;;4.35;2.45;;;;;;;10.13;58.48;99480.59;12205659;19;20006;-84
2022/04/19 07:26:55;;;;;;;5.30;3.13;;;;;;;10.72;55.90;99462.31;12175513;19;20014;-81
2022/04/19 07:30:58;;;;;;;6.45;3.22;;;;;;;11.14;54.86;99469.06;12196869;19;20567;-85
2022/04/19 07:35:02;;;;;;;10.00;3.40;;;;;;;11.61;52.24;99469.19;12205792;19;20011;-86
2022/04/19 07:39:04;;;;;;;5.03;3.22;;;;;;;11.98;51.18;99470.25;12172418;19;20014;-86
2022/04/19 07:43:13;;;;;;;8.25;3.03;;;;;;;12.37;50.26;99467.97;12201633;19;20010;-83
2022/04/19 07:47:17;;;;;;;4.17;2.17;;;;;;;12.80;50.22;99465.09;12200337;19;20011;-84
2022/04/19 07:51:21;;;;;;;6.38;3.40;;;;;;;13.12;48.41;99454.63;12210624;19;20730;-84
2022/04/19 07:55:27;;;;;;;6.23;3.60;;;;;;;13.45;47.56;99453.28;12145268;19;20021;-86
2022/04/19 07:59:29;;;;;;;6.93;3.90;;;;;;;13.72;46.54;99456.84;12202525;19;20399;-84
2022/04/19 08:03:31;;;;;;;9.02;3.72;;;;;;;13.97;45.54;99456.78;12212130;19;20022;-85
2022/04/19 08:07:51;;;;;;;7.18;3.40;;;;;;;14.17;44.93;99455.91;12192916;19;20035;-85
2022/04/19 08:12:41;;;;;;;7.43;4.55;;;;;;;14.46;41.96;99458.84;12209070;19;20014;-84
2022/04/19 08:16:58;;;;;;;11.10;3.85;;;;;;;14.81;41.42;99455.09;12185372;19;20031;-82
2022/04/19 08:21:09;;;;;;;9.07;4.23;;;;;;;15.01;42.09;99456.06;12209657;19;20019;-86
2022/04/19 08:25:15;;;;;;;7.22;4.38;;;;;;;15.13;40.48;99448.19;12186265;19;20002;-85
2022/04/19 08:29:17;;;;;;;8.70;4.93;;;;;;;15.40;40.55;99447.72;12212481;19;20010;-85
2022/04/19 08:33:20;;;;;;;7.75;4.32;;;;;;;15.72;40.47;99446.34;12210688;19;22106;-86
2022/04/19 08:37:29;;;;;;;9.63;4.88;;;;;;;15.68;38.73;99443.34;12176701;19;20523;-84
2022/04/19 08:41:31;;;;;;;9.50;4.90;;;;;;;15.88;38.15;99444.22;12208567;19;20007;-85
2022/04/19 08:45:33;;;;;;;9.13;5.45;;;;;;;16.04;37.84;99436.59;12204650;19;20011;-85
2022/04/19 08:49:40;;;;;;;9.45;5.05;;;;;;;16.23;38.18;99443.00;12189303;19;20429;-86
2022/04/19 08:58:05;;;;;;;9.73;5.03;;;;;;;16.77;36.30;99432.59;12210711;19;20002;-86
2022/04/19 09:02:07;;;;;;;10.55;5.38;;;;;;;16.91;35.07;99430.72;12180121;19;20014;-84
2022/04/19 09:06:10;;;;;;;8.70;4.68;;;;;;;16.96;35.15;99432.63;12208960;19;20011;-85
2022/04/19 09:10:14;;;;;;;10.00;5.65;;;;;;;16.97;34.77;99425.91;12219644;19;20015;-85
2022/04/19 09:14:17;;;;;;;8.40;5.32;;;;;;;16.91;34.92;99441.03;12184623;19;20026;-84
2022/04/19 09:18:29;;;;;;;;;;;;;;;16.73;34.99;99439.88;12203676;19;20015;-84
2022/04/19 09:22:31;;;;;;;10.43;5.15;;;;;;;16.31;34.89;99442.38;12192403;19;19974;-84
2022/04/19 09:26:42;;;;;;;9.00;5.72;;;;;;;16.02;34.78;99436.84;12209002;19;20011;-84
2022/04/19 09:30:52;;;;;;;8.75;5.57;;;;;;;16.11;35.22;99434.25;12213549;19;20392;-85
2022/04/19 09:34:55;;;;;;;8.98;5.55;;;;;;;16.14;34.89;99430.88;12188581;19;20826;-85
2022/04/19 09:38:57;;;;;;;13.57;5.90;;;;;;;16.56;35.60;99432.03;12203428;19;20011;-84
2022/04/19 09:43:28;;;;;;;10.17;5.60;;;;;;;16.93;34.89;99424.88;12210852;19;20010;-83
2022/04/19 09:48:28;;;;;;;;;;;;;;;;;;;;;
2022/04/19 09:52:50;;;;;;;10.68;5.55;;;;;;;17.74;33.64;99409.56;12178343;19;20015;-83
2022/04/19 09:56:53;;;;;;;9.30;5.53;;;;;;;17.94;33.02;99396.41;12211894;19;20007;-82
2022/04/19 10:00:59;;;;;;;9.18;5.90;;;;;;;17.77;33.60;99397.84;12210206;19;20024;-85
2022/04/19 10:09:38;;;;;;;8.18;5.07;;;;;;;17.76;32.62;99393.38;12217652;19;20009;-86
2022/04/19 10:13:55;;;;;;;8.23;4.95;;;;;;;17.59;32.81;99390.34;12188896;19;20046;-84
2022/04/19 10:17:59;;;;;;;9.20;5.22;;;;;;;17.95;32.21;99395.28;12211808;19;20054;-84
2022/04/19 10:22:06;;;;;;;9.88;5.93;;;;;;;18.08;32.15;99388.88;12205385;19;20006;-84
2022/04/19 10:26:20;;;;;;;10.00;5.20;;;;;;;18.23;31.74;99387.72;12179519;19;20014;-83
2022/04/19 10:30:38;;;;;;;9.77;5.55;;;;;;;18.58;31.52;99382.50;12208683;19;20015;-85
2022/04/19 10:34:44;;;;;;;11.77;5.40;;;;;;;18.82;31.49;99376.69;12192470;19;20125;-84
2022/04/19 10:39:15;;;;;;;8.27;5.18;;;;;;;19.10;30.78;99377.44;12224135;19;20006;-83
2022/04/19 10:43:17;;;;;;;9.65;5.80;;;;;;;19.02;29.60;99378.19;12184575;19;20011;-80
2022/04/19 10:47:22;;;;;;;9.95;5.95;;;;;;;18.89;29.99;99380.72;12210568;19;20002;-81
2022/04/19 10:51:28;;;;;;;9.02;5.28;;;;;;;18.92;29.93;99372.81;12229719;19;20638;-82
2022/04/19 10:55:35;;;;;;;8.95;5.65;;;;;;;19.03;29.61;99372.25;12185637;19;20022;-84
2022/04/19 10:59:38;;;;;;;9.90;5.50;;;;;;;19.41;29.90;99373.84;12205485;19;20011;-82
2022/04/19 11:03:49;;;;;;;9.32;5.90;;;;;;;19.66;29.85;99362.03;12216394;19;20014;-82
2022/04/19 11:07:51;;;;;;;9.38;6.40;;;;;;;20.01;28.56;99357.38;12181737;19;20020;-84
2022/04/19 11:12:10;;;;;;;9.05;5.57;;;;;;;19.87;28.68;99353.91;12202388;19;20006;-82
2022/04/19 11:16:13;;;;;;;9.55;5.72;;;;;;;19.66;27.77;99347.22;12199542;19;20031;-81
2022/04/19 11:20:15;;;;;;;10.05;5.47;;;;;;;19.63;28.42;99356.22;12190601;19;20010;-81
2022/04/19 11:24:56;;;;;;;11.15;5.65;;;;;;;19.72;28.01;99354.31;12208941;19;20027;-83
2022/04/19 11:29:10;;;;;;;10.32;5.97;;;;;;;19.78;28.57;99339.88;12176263;19;20010;-80
2022/04/19 11:33:24;;;;;;;10.93;6.35;;;;;;;19.80;28.21;99339.53;12201090;19;20015;-83
2022/04/19 11:37:26;;;;;;;9.93;6.00;;;;;;;19.94;27.54;99325.47;12185996;19;20316;-81
2022/04/19 11:50:24;;;;;;;12.38;5.90;;;;;;;20.94;27.13;99313.44;12193963;19;20763;-83
2022/04/19 11:54:31;;;;;;;8.25;5.30;;;;;;;21.76;26.93;99317.03;12216618;19;20035;-82
2022/04/19 11:58:34;;;;;;;8.85;6.18;;;;;;;22.22;25.65;99306.09;12188863;19;20010;-83
2022/04/19 12:02:37;;;;;;;10.60;4.95;;;;;;;22.86;26.41;99316.19;12212468;19;20464;-83
2022/04/19 12:06:45;;;;;;;8.75;5.95;;;;;;;23.32;25.06;99303.88;12217754;19;20010;-80
2022/04/19 12:10:47;;;;;;;7.28;5.95;;;;;;;23.32;23.84;99305.84;12194203;19;20022;-80
2022/04/19 12:14:53;;;;;;;8.60;5.78;;;;;;;23.36;23.66;99293.56;12218054;19;20106;-81
2022/04/19 12:19:00;;;;;;;9.95;5.88;;;;;;;23.13;23.56;99293.13;12206662;19;20006;-81
2022/04/19 12:23:02;;;;;;;6.53;4.40;;;;;;;23.48;23.90;99297.56;12194677;19;20562;-81
2022/04/19 12:27:04;;;;;;;7.25;4.30;;;;;;;23.88;22.46;99292.97;12216977;19;20479;-80
2022/04/19 12:31:07;;;;;;;8.23;4.10;;;;;;;24.03;22.67;99284.97;12201524;19;20046;-81
2022/04/19 12:35:09;;;;;;;6.22;4.22;;;;;;;24.92;21.21;99279.25;12192355;19;20180;-79
2022/04/19 12:39:11;;;;;;;6.40;3.92;;;;;;;24.70;22.28;99277.00;12208584;19;20484;-79
2022/04/19 12:43:18;;;;;;;9.82;4.85;;;;;;;24.91;21.35;99271.19;12213642;19;20022;-79
2022/04/19 12:47:25;;;;;;;7.10;4.70;;;;;;;25.03;20.72;99265.47;12201831;19;20416;-79
2022/04/19 12:51:27;;;;;;;6.35;4.32;;;;;;;24.75;21.56;99268.31;12209104;19;20375;-81
2022/04/19 12:55:35;;;;;;;5.22;2.75;;;;;;;25.78;21.69;99263.84;12189937;19;20027;-81
2022/04/19 12:59:36;;;;;;;7.68;4.55;;;;;;;26.41;19.64;99252.44;12202149;19;20032;-81
2022/04/19 13:03:39;;;;;;;5.45;3.90;;;;;;;26.93;19.32;99256.00;12204055;19;20010;-81
2022/04/19 13:12:19;;;;;;;6.10;3.65;;;;;;;27.08;20.03;99240.94;12205590;19;20011;-81
2022/04/19 13:16:24;;;;;;;5.82;4.20;;;;;;;28.05;19.88;99234.16;12184789;19;20011;-83
2022/04/19 13:20:27;;;;;;;6.20;4.85;;;;;;;28.87;19.20;99228.81;12212338;19;20021;-81
2022/04/19 13:24:29;;;;;;;6.95;4.50;;;;;;;28.34;18.54;99219.22;12210844;19;20081;-79
2022/04/19 13:28:30;;;;;;;;;;;;;;;28.79;19.29;99216.56;12188410;19;20029;-80
2022/04/19 13:32:35;;;;;;;5.60;4.00;;;;;;;28.97;18.21;99211.94;12218333;19;19931;-79
2022/04/19 13:36:38;;;;;;;4.53;3.70;;;;;;;28.54;18.34;99219.91;12222961;19;20011;-79
2022/04/19 13:40:40;;;;;;;6.53;3.70;;;;;;;28.06;18.96;99213.97;12209311;19;20015;-80
2022/04/19 13:44:41;;;;;;;5.80;3.90;;;;;;;28.56;18.36;99209.03;12225988;19;20005;-78
2022/04/19 13:48:43;;;;;;;4.45;3.20;;;;;;;27.98;19.16;99206.56;12221625;19;20014;-81
2022/04/19 13:52:45;;;;;;;5.20;3.78;;;;;;;28.27;18.27;99202.13;12183823;19;20006;-77
2022/04/19 13:56:48;;;;;;;3.83;2.95;;;;;;;27.31;19.13;99201.41;12213913;19;20014;-80
2022/04/19 14:00:49;;;;;;;4.60;2.70;;;;;;;26.40;19.85;99207.63;12202871;19;20014;-81
2022/04/19 14:04:52;;;;;;;3.95;2.85;;;;;;;25.02;21.00;99196.22;12185849;19;20379;-81
2022/04/19 14:08:57;;;;;;;6.93;2.70;;;;;;;24.45;22.37;99203.88;12206971;19;20017;-83
2022/04/19 14:12:59;;;;;;;3.78;2.30;;;;;;;24.46;22.08;99204.69;12213691;19;20018;-79
2022/04/19 14:17:02;;;;;;;4.13;2.63;;;;;;;24.52;22.03;99204.06;12186690;19;20679;-81
2022/04/19 14:21:04;;;;;;;7.85;3.30;;;;;;;24.11;22.69;99211.66;12206648;19;20182;-81
2022/04/19 14:25:06;;;;;;;5.15;2.90;;;;;;;23.35;23.10;99198.31;12212444;19;20015;-82
2022/04/19 14:33:29;;;;;;;9.98;2.45;;;;;;;22.26;24.89;99204.03;12210500;19;20006;-81
2022/04/19 14:37:34;;;;;;;5.88;2.58;;;;;;;22.01;25.37;99213.44;12176998;19;20057;-85
2022/04/19 14:41:35;;;;;;;6.70;2.65;;;;;;;21.96;25.44;99206.06;12217699;19;20455;-81
2022/04/19 14:45:37;;;;;;;3.67;2.07;;;;;;;22.02;25.42;99210.31;12215371;19;20686;-81
2022/04/19 14:49:39;;;;;;;5.88;1.80;;;;;;;22.19;25.78;99208.53;12193691;19;20025;-81
2022/04/19 14:53:41;;;;;;;3.53;1.83;;;;;;;22.61;25.17;99208.53;12209196;19;20038;-81
2022/04/19 14:57:43;;;;;;;2.93;1.30;;;;;;;22.70;24.55;99207.28;12209949;19;20056;-81
2022/04/19 15:01:45;;;;;;;2.40;1.40;;;;;;;23.06;24.24;99204.97;12181553;19;20014;-81
2022/04/19 15:05:47;;;;;;;4.40;1.67;;;;;;;22.07;25.58;99200.84;12203473;19;20364;-80
2022/04/19 15:09:48;;;;;;;2.33;1.40;;;;;;;21.13;26.31;99195.41;12214737;19;20019;-79
2022/04/19 15:19:17;;;;;;;2.25;1.30;;;;;;;20.69;27.44;99197.50;12218490;19;20014;-83
2022/04/19 15:24:09;;;;;;;4.25;1.70;;;;;;;20.75;27.26;99184.97;12251882;19;20032;-81
2022/04/19 15:28:39;;;;;;;2.67;1.30;;;;;;;20.26;28.03;99196.38;12245929;19;20050;-79
2022/04/19 15:37:39;;;;;;;2.47;1.20;;;;;;;20.04;28.11;99190.91;12245705;19;20062;-81
2022/04/19 15:41:43;;;;;;;2.95;1.30;;;;;;;19.77;28.10;99195.66;12252902;19;20010;-82
2022/04/19 15:46:09;;;;;;;3.15;1.30;;;;;;;19.61;29.08;99194.44;12265232;19;20025;-84
2022/04/19 15:50:23;;;;;;;3.13;1.33;;;;;;;19.73;28.87;99191.88;12191557;19;20017;-83
2022/04/19 15:55:04;;;;;;;2.45;1.38;;;;;;;19.54;29.51;99199.66;12244528;19;20014;-84
2022/04/19 15:59:24;;;;;;;2.72;1.80;;;;;;;19.70;29.20;99191.69;12203425;19;20014;-85
2022/04/19 16:03:26;;;;;;;1.88;1.20;;;;;;;20.24;28.61;99186.66;12206221;19;20046;-84
2022/04/19 16:07:51;;;;;;;3.28;1.33;;;;;;;20.65;29.06;99182.53;12204969;19;20018;-85
2022/04/19 16:11:53;;;;;;;2.67;1.20;;;;;;;20.57;29.60;99194.56;12212079;19;20121;-85
2022/04/19 16:23:20;;;;;;;3.30;1.40;;;;;;;20.38;29.06;99201.31;12221145;19;20021;-82
2022/04/19 16:25:03;;;;;;;4.63;1.13;;;;;;;20.80;28.76;99182.00;12213893;19;20118;-85
2022/04/19 16:29:21;;;;;;;1.67;0.95;;;;;;;20.80;28.30;99187.59;12168385;19;20002;-86
2022/04/19 16:33:25;;;;;;;1.50;0.90;;;;;;;20.99;28.20;99201.22;12219357;19;20022;-86
2022/04/19 16:37:28;;;;;;;2.88;0.90;;;;;;;20.29;28.66;99189.28;12191302;19;20050;-88
2022/04/19 16:41:30;;;;;;;2.83;1.00;;;;;;;19.65;29.75;99192.66;12031724;19;3563158;-86
2022/04/19 16:45:32;;;;;;;1.20;0.70;;;;;;;19.13;30.61;99201.66;12224696;19;20015;-85
2022/04/19 16:49:34;;;;;;;1.45;0.90;;;;;;;18.50;31.60;99197.19;12207695;19;21504;-85
2022/04/19 16:53:36;;;;;;;4.43;2.10;;;;;;;18.24;31.64;99194.19;12212562;19;20032;-85
2022/04/19 16:57:37;;;;;;;2.78;1.05;;;;;;;18.21;32.20;99194.81;12227673;19;20063;-86
2022/04/19 17:01:39;;;;;;;1.63;0.90;;;;;;;17.81;32.92;99205.75;12206472;19;20015;-85
2022/04/19 17:05:43;;;;;;;5.45;1.58;;;;;;;17.67;32.29;99211.31;12219803;19;20034;-84
2022/04/19 17:09:47;;;;;;;2.53;0.88;;;;;;;17.37;32.91;99211.94;12252267;19;20014;-86
2022/04/19 17:13:50;;;;;;;3.47;0.98;;;;;;;17.14;32.80;99211.84;12197944;19;20018;-84
2022/04/19 17:17:52;;;;;;;4.45;0.88;;;;;;;17.39;32.56;99209.69;12223650;19;20345;-85
2022/04/19 17:21:53;;;;;;;1.30;0.70;;;;;;;17.66;32.34;99212.44;12233345;19;20021;-85
2022/04/19 17:25:58;;;;;;;1.30;0.80;;;;;;;17.74;32.94;99222.88;12204718;19;20031;-85
2022/04/19 17:30:04;;;;;;;2.10;0.90;;;;;;;17.58;32.35;99221.56;12213939;19;20039;-83
2022/04/19 17:34:26;;;;;;;2.00;1.10;;;;;;;17.64;32.39;99225.88;12188262;19;20030;-84
2022/04/19 17:38:28;;;;;;;3.22;0.90;;;;;;;17.83;32.16;99233.31;12218221;19;20021;-84
2022/04/19 17:42:33;;;;;;;5.80;0.90;;;;;;;18.24;31.77;99232.41;12211637;19;20351;-83
2022/04/19 17:47:01;;;;;;;2.35;1.10;;;;;;;18.06;31.99;99234.22;12193587;19;20385;-83
2022/04/19 18:00:10;;;;;;;2.72;0.60;;;;;;;17.39;31.44;99262.59;12205447;19;20030;-83
2022/04/19 18:04:11;;;;;;;0.50;0.40;;;;;;;16.72;30.93;99262.97;12212804;19;20015;-83
2022/04/19 18:08:20;;;;;;;1.35;0.55;;;;;;;16.21;31.43;99266.50;12188145;19;20613;-86
2022/04/19 18:12:26;;;;;;;3.08;0.60;;;;;;;15.84;32.09;99276.47;12210389;19;20058;-88
2022/04/19 18:16:28;;;;;;;1.67;0.57;;;;;;;15.47;32.37;99281.63;12187275;19;20046;-86
2022/04/19 18:20:30;;;;;;;2.70;0.90;;;;;;;15.19;32.66;99293.56;12211940;19;20081;-85
2022/04/19 18:28:55;;;;;;;0.90;0.60;;;;;;;14.58;33.49;99311.59;12191838;19;20534;-85
2022/04/19 18:32:56;;;;;;;1.63;0.70;;;;;;;14.39;33.72;99316.13;12201025;19;20079;-82
2022/04/19 18:46:06;;;;;;;1.05;0.70;;;;;;;13.89;33.85;99341.88;12211186;19;20009;-83
2022/04/19 18:50:34;;;;;;;1.08;0.70;;;;;;;13.83;34.23;99353.22;12194578;19;20011;-83
2022/04/19 19:00:31;;;;;;;4.22;2.45;;;;;;;13.51;33.71;99376.59;12211494;19;20013;-85
2022/04/19 19:05:27;;;;;;;1.90;0.85;;;;;;;13.42;33.66;99390.16;12205600;19;20010;-86
2022/04/19 19:09:44;;;;;;;1.45;0.70;;;;;;;13.23;33.94;99403.69;12238845;19;20018;-87
2022/04/19 19:13:59;;;;;;;1.88;0.73;;;;;;;13.14;34.30;99401.78;12179283;19;20346;-85
2022/04/19 19:18:11;;;;;;;1.25;0.80;;;;;;;12.99;34.32;99406.19;12210428;19;20012;-85
2022/04/19 19:22:35;;;;;;;1.35;1.20;;;;;;;12.90;34.75;99418.06;12190548;19;20622;-84
2022/04/19 19:26:39;;;;;;;1.85;0.80;;;;;;;12.78;35.17;99427.47;12198377;19;20015;-85
2022/04/19 19:30:40;;;;;;;1.63;0.70;;;;;;;12.62;35.48;99434.06;12212961;19;20002;-85
2022/04/19 19:34:44;;;;;;;2.17;0.93;;;;;;;12.54;35.40;99440.13;12184783;19;20366;-85
2022/04/19 19:38:50;;;;;;;;;;;;;;;12.41;35.83;99446.16;12216145;19;20017;-84
2022/04/19 19:42:52;;;;;;;1.40;0.90;;;;;;;12.27;35.56;99454.94;12207238;19;19933;-84
2022/04/19 19:47:00;;;;;;;1.85;0.80;;;;;;;12.15;36.52;99456.28;12185719;19;20523;-84
2022/04/19 19:51:26;;;;;;;1.88;0.90;;;;;;;12.05;36.74;99462.59;12208589;19;20013;-86
2022/04/19 19:55:34;;;;;;;1.63;1.00;;;;;;;11.95;37.61;99468.03;12185756;19;20015;-86
2022/04/19 19:59:40;;;;;;;2.33;1.33;;;;;;;11.90;37.02;99481.81;12217204;19;20021;-86
2022/04/19 20:03:48;;;;;;;2.13;1.08;;;;;;;11.78;36.94;99491.09;12218963;19;20494;-85
2022/04/19 20:07:50;;;;;;;1.92;0.98;;;;;;;11.72;37.47;99497.69;12194832;19;20086;-85
2022/04/19 20:11:53;;;;;;;1.83;1.02;;;;;;;11.67;37.42;99500.41;12223537;19;20472;-86
2022/04/19 20:15:57;;;;;;;;;;;;;;;11.61;37.34;99509.75;12211893;19;20010;-86
2022/04/19 20:20:02;;;;;;;2.60;0.98;;;;;;;11.52;37.58;99508.56;12197648;19;19924;-85
2022/04/19 20:24:12;;;;;;;20.00;1.90;;;;;;;11.43;37.95;99507.41;12212724;19;20056;-86
2022/04/19 20:28:21;;;;;;;7.90;1.45;;;;;;;11.29;38.59;99507.81;12209143;19;20014;-84
2022/04/19 20:37:13;;;;;;;3.47;1.50;;;;;;;11.17;38.32;99523.69;12216533;19;20010;-85
2022/04/19 20:41:23;;;;;;;4.43;1.58;;;;;;;11.12;39.23;99527.25;12196630;19;20011;-84
2022/04/19 20:45:26;;;;;;;2.50;1.40;;;;;;;11.10;38.80;99532.19;12212329;19;20014;-87